Time,TemperatureF,DewpointF,PressureIn,WindDirection,WindDirectionDegrees,WindSpeedMPH,WindSpeedGustMPH,Humidity,HourlyPrecipIn,Conditions,Clouds,dailyrainin,SoftwareType,DateUTC
2013-10-02 00:15:00,35.3,31.0,30.16,ESE,115,0.0,1.0,84,0.00,,,0.00,weatherlink.com 1.10,2013-10-02 07:15:00,
2013-10-02 00:29:00,35.3,31.0,30.16,ESE,105,0.0,1.0,84,0.00,,,0.00,weatherlink.com 1.10,2013-10-02 07:29:00,
2013-10-02 00:44:00,35.1,31.0,30.16,ESE,113,0.0,2.0,84,0.00,,,0.00,weatherlink.com 1.10,2013-10-02 07:44:00,
2013-10-02 00:59:00,34.3,30.0,30.16,ESE,118,0.0,2.0,85,0.00,,,0.00,weatherlink.com 1.10,2013-10-02 07:59:00,
2013-10-02 01:14:00,34.5,31.0,30.16,ESE,121,0.0,1.0,85,0.00,,,0.00,weatherlink.com 1.10,2013-10-02 08:14:00,
2013-10-02 01:29:00,33.6,30.0,30.16,ESE,118,0.0,3.0,86,0.00,,,0.00,weatherlink.com 1.10,2013-10-02 08:29:00,
2013-10-02 01:44:00,33.5,30.0,30.16,ESE,115,0.0,1.0,86,0.00,,,0.00,weatherlink.com 1.10,2013-10-02 08:44:00,
2013-10-02 01:59:00,33.0,30.0,30.15,ESE,114,0.0,2.0,88,0.00,,,0.00,weatherlink.com 1.10,2013-10-02 08:59:00,
2013-10-02 02:14:00,33.4,30.0,30.15,ESE,117,1.0,1.0,87,0.00,,,0.00,weatherlink.com 1.10,2013-10-02 09:14:00,
2013-10-02 02:29:00,33.9,30.0,30.14,ESE,118,0.0,0.0,85,0.00,,,0.00,weatherlink.com 1.10,2013-10-02 09:29:00,
2013-10-02 02:44:00,34.3,30.0,30.13,ESE,114,0.0,1.0,84,0.00,,,0.00,weatherlink.com 1.10,2013-10-02 09:44:00,
2013-10-02 02:59:00,34.1,30.0,30.13,ESE,114,0.0,0.0,84,0.00,,,0.00,weatherlink.com 1.10,2013-10-02 09:59:00,
2013-10-02 03:14:00,33.8,30.0,30.12,ESE,114,0.0,0.0,84,0.00,,,0.00,weatherlink.com 1.10,2013-10-02 10:14:00,
2013-10-02 03:29:00,33.3,30.0,30.12,ESE,116,0.0,1.0,86,0.00,,,0.00,weatherlink.com 1.10,2013-10-02 10:29:00,
2013-10-02 03:44:00,33.3,30.0,30.11,ESE,121,0.0,3.0,86,0.00,,,0.00,weatherlink.com 1.10,2013-10-02 10:44:00,
2013-10-02 03:59:00,31.9,29.0,30.11,ESE,115,0.0,1.0,87,0.00,,,0.00,weatherlink.com 1.10,2013-10-02 10:59:00,
2013-10-02 04:14:00,32.3,29.0,30.10,ESE,123,0.0,1.0,86,0.00,,,0.00,weatherlink.com 1.10,2013-10-02 11:14:00,
2013-10-02 04:29:00,32.1,28.0,30.10,ESE,122,0.0,0.0,86,0.00,,,0.00,weatherlink.com 1.10,2013-10-02 11:29:00,
2013-10-02 04:44:00,32.4,29.0,30.10,ESE,121,0.0,0.0,86,0.00,,,0.00,weatherlink.com 1.10,2013-10-02 11:44:00,
2013-10-02 04:59:00,32.0,28.0,30.10,ESE,115,0.0,2.0,86,0.00,,,0.00,weatherlink.com 1.10,2013-10-02 11:59:00,
2013-10-02 05:14:00,32.0,28.0,30.10,ESE,119,0.0,1.0,85,0.00,,,0.00,weatherlink.com 1.10,2013-10-02 12:14:00,
2013-10-02 05:29:00,32.2,29.0,30.10,ESE,122,0.0,2.0,87,0.00,,,0.00,weatherlink.com 1.10,2013-10-02 12:29:00,
2013-10-02 05:44:00,32.7,29.0,30.09,ESE,111,0.0,3.0,87,0.00,,,0.00,weatherlink.com 1.10,2013-10-02 12:44:00,
2013-10-02 06:00:00,33.1,29.0,30.09,ESE,122,0.0,0.0,85,0.00,,,0.00,weatherlink.com 1.10,2013-10-02 13:00:00,
2013-10-02 06:15:00,33.3,29.0,30.09,ESE,122,0.0,0.0,85,0.00,,,0.00,weatherlink.com 1.10,2013-10-02 13:15:00,
2013-10-02 06:30:00,32.1,28.0,30.09,ESE,108,0.0,1.0,86,0.00,,,0.00,weatherlink.com 1.10,2013-10-02 13:30:00,
2013-10-02 06:45:00,31.7,29.0,30.09,ESE,108,0.0,1.0,88,0.00,,,0.00,weatherlink.com 1.10,2013-10-02 13:45:00,
2013-10-02 07:00:00,31.1,28.0,30.08,ESE,118,0.0,1.0,88,0.01,,,0.01,weatherlink.com 1.10,2013-10-02 14:00:00,
2013-10-02 07:15:00,31.3,29.0,30.08,SE,141,0.0,1.0,89,0.01,,,0.01,weatherlink.com 1.10,2013-10-02 14:15:00,
2013-10-02 07:30:00,31.8,29.0,30.08,SE,131,1.0,2.0,89,0.01,,,0.01,weatherlink.com 1.10,2013-10-02 14:30:00,
2013-10-02 07:45:00,33.0,30.0,30.08,SE,146,0.0,3.0,87,0.01,,,0.01,weatherlink.com 1.10,2013-10-02 14:45:00,
2013-10-02 08:00:00,33.6,30.0,30.07,North,9,0.0,1.0,86,0.00,,,0.01,weatherlink.com 1.10,2013-10-02 15:00:00,
2013-10-02 08:15:00,34.7,30.0,30.07,WSW,247,0.0,5.0,84,0.00,,,0.01,weatherlink.com 1.10,2013-10-02 15:15:00,
2013-10-02 08:30:00,35.3,30.0,30.07,SE,141,1.0,5.0,82,0.00,,,0.01,weatherlink.com 1.10,2013-10-02 15:30:00,
2013-10-02 08:45:00,35.5,30.0,30.07,ESE,121,1.0,5.0,81,0.00,,,0.01,weatherlink.com 1.10,2013-10-02 15:45:00,
2013-10-02 09:00:00,36.6,31.0,30.06,SE,146,6.0,9.0,79,0.00,,,0.01,weatherlink.com 1.10,2013-10-02 16:00:00,
2013-10-02 09:15:00,38.3,31.0,30.06,South,188,2.0,8.0,76,0.00,,,0.01,weatherlink.com 1.10,2013-10-02 16:15:00,
2013-10-02 09:30:00,39.6,32.0,30.06,SSW,200,5.0,7.0,73,0.00,,,0.01,weatherlink.com 1.10,2013-10-02 16:30:00,
2013-10-02 09:45:00,40.4,32.0,30.06,SSE,149,3.0,9.0,71,0.00,,,0.01,weatherlink.com 1.10,2013-10-02 16:45:00,
2013-10-02 10:00:00,40.2,31.0,30.07,SSE,158,2.0,10.0,70,0.00,,,0.01,weatherlink.com 1.10,2013-10-02 17:00:00,
2013-10-02 10:15:00,40.8,32.0,30.07,SSE,157,4.0,9.0,70,0.00,,,0.01,weatherlink.com 1.10,2013-10-02 17:15:00,
2013-10-02 10:30:00,40.6,31.0,30.07,SSE,164,2.0,8.0,68,0.00,,,0.01,weatherlink.com 1.10,2013-10-02 17:30:00,
2013-10-02 10:45:00,40.9,31.0,30.07,South,190,1.0,7.0,69,0.00,,,0.01,weatherlink.com 1.10,2013-10-02 17:45:00,
2013-10-02 11:00:00,40.3,30.0,30.07,SSE,156,4.0,9.0,68,0.00,,,0.01,weatherlink.com 1.10,2013-10-02 18:00:00,
2013-10-02 11:15:00,40.4,31.0,30.06,SE,146,6.0,10.0,70,0.00,,,0.01,weatherlink.com 1.10,2013-10-02 18:15:00,
2013-10-02 11:30:00,41.2,30.0,30.05,SSW,201,4.0,7.0,65,0.00,,,0.01,weatherlink.com 1.10,2013-10-02 18:30:00,
2013-10-02 11:45:00,41.4,30.0,30.05,SSW,210,6.0,7.0,64,0.00,,,0.01,weatherlink.com 1.10,2013-10-02 18:45:00,
2013-10-02 12:00:00,41.4,30.0,30.04,SSW,201,1.0,8.0,64,0.00,,,0.01,weatherlink.com 1.10,2013-10-02 19:00:00,
2013-10-02 12:15:00,42.3,30.0,30.03,SE,138,3.0,6.0,63,0.00,,,0.01,weatherlink.com 1.10,2013-10-02 19:15:00,
2013-10-02 12:30:00,43.2,30.0,30.03,SSW,195,3.0,5.0,59,0.00,,,0.01,weatherlink.com 1.10,2013-10-02 19:30:00,
2013-10-02 12:45:00,43.7,29.0,30.02,South,179,4.0,9.0,57,0.00,,,0.01,weatherlink.com 1.10,2013-10-02 19:45:00,
2013-10-02 13:00:00,44.1,30.0,30.02,South,187,0.0,4.0,58,0.00,,,0.01,weatherlink.com 1.10,2013-10-02 20:00:00,
2013-10-02 13:15:00,44.4,31.0,30.02,WSW,243,6.0,7.0,60,0.00,,,0.01,weatherlink.com 1.10,2013-10-02 20:15:00,
2013-10-02 13:31:00,42.8,32.0,30.02,NW,309,5.0,10.0,65,0.00,,,0.01,weatherlink.com 1.10,2013-10-02 20:31:00,
2013-10-02 13:46:00,41.7,35.0,30.02,NNW,332,2.0,11.0,78,0.00,,,0.01,weatherlink.com 1.10,2013-10-02 20:46:00,
2013-10-02 14:01:00,41.3,35.0,30.02,NW,308,4.0,9.0,78,0.00,,,0.01,weatherlink.com 1.10,2013-10-02 21:01:00,
2013-10-02 14:16:00,41.2,35.0,30.02,WNW,301,4.0,8.0,77,0.00,,,0.01,weatherlink.com 1.10,2013-10-02 21:16:00,
2013-10-02 14:31:00,42.4,34.0,30.02,WNW,287,5.0,12.0,71,0.00,,,0.01,weatherlink.com 1.10,2013-10-02 21:31:00,
2013-10-02 14:46:00,42.9,33.0,30.02,NW,316,5.0,12.0,67,0.00,,,0.01,weatherlink.com 1.10,2013-10-02 21:46:00,
2013-10-02 15:01:00,42.8,32.0,30.02,North,351,3.0,8.0,67,0.00,,,0.01,weatherlink.com 1.10,2013-10-02 22:01:00,
2013-10-02 15:16:00,43.7,33.0,30.02,WNW,300,8.0,11.0,66,0.00,,,0.01,weatherlink.com 1.10,2013-10-02 22:16:00,
2013-10-02 15:31:00,43.4,32.0,30.02,NNW,328,3.0,10.0,65,0.00,,,0.01,weatherlink.com 1.10,2013-10-02 22:31:00,
2013-10-02 15:46:00,42.6,31.0,30.02,NNW,327,2.0,9.0,65,0.00,,,0.01,weatherlink.com 1.10,2013-10-02 22:46:00,
2013-10-02 16:01:00,43.3,32.0,30.02,NW,323,2.0,9.0,65,0.00,,,0.01,weatherlink.com 1.10,2013-10-02 23:01:00,
2013-10-02 16:16:00,44.3,32.0,30.02,NW,315,3.0,11.0,62,0.00,,,0.01,weatherlink.com 1.10,2013-10-02 23:16:00,
2013-10-02 16:31:00,44.4,32.0,30.02,NNW,335,2.0,9.0,63,0.00,,,0.01,weatherlink.com 1.10,2013-10-02 23:31:00,
2013-10-02 16:46:00,44.6,30.0,30.02,WNW,302,3.0,9.0,57,0.00,,,0.01,weatherlink.com 1.10,2013-10-02 23:46:00,
2013-10-02 17:01:00,43.2,30.0,30.02,NNW,332,2.0,8.0,60,0.00,,,0.01,weatherlink.com 1.10,2013-10-03 00:01:00,
2013-10-02 17:16:00,42.7,30.0,30.03,North,11,3.0,6.0,61,0.00,,,0.01,weatherlink.com 1.10,2013-10-03 00:16:00,
2013-10-02 17:31:00,42.3,31.0,30.03,NNW,327,2.0,4.0,65,0.00,,,0.01,weatherlink.com 1.10,2013-10-03 00:31:00,
2013-10-02 17:46:00,42.1,32.0,30.03,NW,320,2.0,4.0,67,0.00,,,0.01,weatherlink.com 1.10,2013-10-03 00:46:00,
2013-10-02 18:01:00,42.0,32.0,30.03,NW,325,1.0,4.0,68,0.00,,,0.01,weatherlink.com 1.10,2013-10-03 01:01:00,
2013-10-02 18:17:00,41.0,33.0,30.04,NNW,341,2.0,10.0,73,0.00,,,0.01,weatherlink.com 1.10,2013-10-03 01:17:00,
2013-10-02 18:31:00,40.3,33.0,30.04,North,355,4.0,5.0,75,0.00,,,0.01,weatherlink.com 1.10,2013-10-03 01:31:00,
2013-10-02 18:46:00,39.8,34.0,30.04,NNW,343,1.0,6.0,79,0.00,,,0.01,weatherlink.com 1.10,2013-10-03 01:46:00,
2013-10-02 19:01:00,38.8,34.0,30.04,NNW,332,0.0,1.0,82,0.00,,,0.01,weatherlink.com 1.10,2013-10-03 02:01:00,
2013-10-02 19:16:00,38.5,33.0,30.04,North,8,0.0,2.0,81,0.00,,,0.01,weatherlink.com 1.10,2013-10-03 02:16:00,
2013-10-02 19:31:00,37.3,34.0,30.04,SSW,194,3.0,7.0,86,0.01,,,0.02,weatherlink.com 1.10,2013-10-03 02:31:00,
2013-10-02 19:47:00,36.5,34.0,30.05,SSE,157,0.0,3.0,89,0.01,,,0.02,weatherlink.com 1.10,2013-10-03 02:47:00,
2013-10-02 20:01:00,36.6,34.0,30.05,South,191,0.0,1.0,89,0.01,,,0.02,weatherlink.com 1.10,2013-10-03 03:01:00,
2013-10-02 20:16:00,36.7,34.0,30.05,South,191,0.0,0.0,90,0.02,,,0.03,weatherlink.com 1.10,2013-10-03 03:16:00,
2013-10-02 20:31:00,36.7,34.0,30.06,South,191,0.0,0.0,91,0.01,,,0.03,weatherlink.com 1.10,2013-10-03 03:31:00,
2013-10-02 20:46:00,36.7,34.0,30.06,South,191,0.0,0.0,91,0.01,,,0.03,weatherlink.com 1.10,2013-10-03 03:46:00,
2013-10-02 21:01:00,36.6,34.0,30.07,SSW,192,0.0,0.0,91,0.01,,,0.03,weatherlink.com 1.10,2013-10-03 04:01:00,
2013-10-02 21:16:00,36.2,34.0,30.07,ESE,120,0.0,0.0,91,0.00,,,0.03,weatherlink.com 1.10,2013-10-03 04:16:00,
2013-10-02 21:31:00,35.6,33.0,30.07,ESE,120,0.0,0.0,91,0.00,,,0.03,weatherlink.com 1.10,2013-10-03 04:31:00,
2013-10-02 21:46:00,35.3,33.0,30.07,ESE,120,0.0,0.0,92,0.00,,,0.03,weatherlink.com 1.10,2013-10-03 04:46:00,
2013-10-02 22:01:00,35.6,34.0,30.07,North,11,0.0,0.0,92,0.00,,,0.03,weatherlink.com 1.10,2013-10-03 05:01:00,
2013-10-02 22:16:00,35.6,34.0,30.08,SSE,151,0.0,0.0,93,0.00,,,0.03,weatherlink.com 1.10,2013-10-03 05:16:00,
2013-10-02 22:31:00,35.8,34.0,30.08,SSE,150,0.0,0.0,93,0.00,,,0.03,weatherlink.com 1.10,2013-10-03 05:31:00,
2013-10-02 22:46:00,36.1,34.0,30.09,West,269,0.0,0.0,93,0.00,,,0.03,weatherlink.com 1.10,2013-10-03 05:46:00,
2013-10-02 23:01:00,35.5,33.0,30.09,NW,324,2.0,5.0,91,0.02,,,0.05,weatherlink.com 1.10,2013-10-03 06:01:00,
2013-10-02 23:16:00,34.0,32.0,30.10,NNW,329,2.0,7.0,92,0.05,,,0.08,weatherlink.com 1.10,2013-10-03 06:16:00,
2013-10-02 23:31:00,32.1,30.0,30.10,NNE,26,0.0,2.0,92,0.05,,,0.08,weatherlink.com 1.10,2013-10-03 06:31:00,
2013-10-02 23:46:00,31.7,30.0,30.11,NNE,23,1.0,1.0,93,0.05,,,0.08,weatherlink.com 1.10,2013-10-03 06:46:00,